sensor_id;sensor_type;location;lat;lon;timestamp;temperature;humidity
38488;DHT22;57384;51.986;4.458;2023-06-14T00:01:02;22.20;44.40
38488;DHT22;57384;51.986;4.458;2023-06-14T00:03:37;22.20;44.50
38488;DHT22;57384;51.986;4.458;2023-06-14T00:06:06;22.20;44.70
38488;DHT22;57384;51.986;4.458;2023-06-14T00:08:40;22.10;44.80
38488;DHT22;57384;51.986;4.458;2023-06-14T00:11:09;22.10;45.10
38488;DHT22;57384;51.986;4.458;2023-06-14T00:13:38;22.10;45.20
38488;DHT22;57384;51.986;4.458;2023-06-14T00:16:07;22.00;45.40
38488;DHT22;57384;51.986;4.458;2023-06-14T00:18:36;21.90;45.50
38488;DHT22;57384;51.986;4.458;2023-06-14T00:21:05;21.90;45.60
38488;DHT22;57384;51.986;4.458;2023-06-14T00:23:38;21.90;45.90
38488;DHT22;57384;51.986;4.458;2023-06-14T00:26:07;21.90;46.10
38488;DHT22;57384;51.986;4.458;2023-06-14T00:28:37;21.80;46.10
38488;DHT22;57384;51.986;4.458;2023-06-14T00:31:04;21.80;46.20
38488;DHT22;57384;51.986;4.458;2023-06-14T00:33:33;21.80;46.10
38488;DHT22;57384;51.986;4.458;2023-06-14T00:36:00;21.70;46.30
38488;DHT22;57384;51.986;4.458;2023-06-14T00:38:36;21.70;46.40
38488;DHT22;57384;51.986;4.458;2023-06-14T00:41:05;21.70;46.60
38488;DHT22;57384;51.986;4.458;2023-06-14T00:43:38;21.70;46.60
38488;DHT22;57384;51.986;4.458;2023-06-14T00:46:08;21.60;46.70
38488;DHT22;57384;51.986;4.458;2023-06-14T00:48:38;21.60;46.90
38488;DHT22;57384;51.986;4.458;2023-06-14T00:51:12;21.60;46.90
38488;DHT22;57384;51.986;4.458;2023-06-14T00:53:45;21.50;47.20
38488;DHT22;57384;51.986;4.458;2023-06-14T00:56:14;21.50;47.40
38488;DHT22;57384;51.986;4.458;2023-06-14T00:58:44;21.50;47.30
38488;DHT22;57384;51.986;4.458;2023-06-14T01:01:17;21.40;47.40
38488;DHT22;57384;51.986;4.458;2023-06-14T01:03:44;21.40;47.60
38488;DHT22;57384;51.986;4.458;2023-06-14T01:09:15;21.30;47.70
38488;DHT22;57384;51.986;4.458;2023-06-14T01:12:13;21.30;47.50
38488;DHT22;57384;51.986;4.458;2023-06-14T01:14:43;21.20;47.80
38488;DHT22;57384;51.986;4.458;2023-06-14T01:17:20;21.20;47.80
38488;DHT22;57384;51.986;4.458;2023-06-14T01:19:48;21.20;47.80
38488;DHT22;57384;51.986;4.458;2023-06-14T01:22:22;21.10;47.90
38488;DHT22;57384;51.986;4.458;2023-06-14T01:24:49;21.10;48.10
38488;DHT22;57384;51.986;4.458;2023-06-14T01:27:19;21.10;48.00
38488;DHT22;57384;51.986;4.458;2023-06-14T01:29:46;21.10;47.90
38488;DHT22;57384;51.986;4.458;2023-06-14T01:32:12;21.10;47.80
38488;DHT22;57384;51.986;4.458;2023-06-14T01:34:42;21.00;48.00
38488;DHT22;57384;51.986;4.458;2023-06-14T01:37:11;21.00;48.10
38488;DHT22;57384;51.986;4.458;2023-06-14T01:39:46;21.00;48.00
38488;DHT22;57384;51.986;4.458;2023-06-14T01:42:17;20.90;47.70
38488;DHT22;57384;51.986;4.458;2023-06-14T01:44:47;20.90;47.80
38488;DHT22;57384;51.986;4.458;2023-06-14T01:47:23;20.90;48.10
38488;DHT22;57384;51.986;4.458;2023-06-14T01:49:51;20.80;47.90
38488;DHT22;57384;51.986;4.458;2023-06-14T01:52:20;20.80;47.70
38488;DHT22;57384;51.986;4.458;2023-06-14T01:54:51;20.80;47.80
38488;DHT22;57384;51.986;4.458;2023-06-14T01:57:19;20.70;47.90
38488;DHT22;57384;51.986;4.458;2023-06-14T01:59:46;20.70;47.90
38488;DHT22;57384;51.986;4.458;2023-06-14T02:02:15;20.70;47.70
38488;DHT22;57384;51.986;4.458;2023-06-14T02:04:42;20.60;47.30
38488;DHT22;57384;51.986;4.458;2023-06-14T02:07:08;20.60;47.60
38488;DHT22;57384;51.986;4.458;2023-06-14T02:09:41;20.60;47.30
38488;DHT22;57384;51.986;4.458;2023-06-14T02:12:08;20.60;47.50
38488;DHT22;57384;51.986;4.458;2023-06-14T02:14:38;20.50;47.50
38488;DHT22;57384;51.986;4.458;2023-06-14T02:17:04;20.50;47.10
38488;DHT22;57384;51.986;4.458;2023-06-14T02:19:33;20.50;47.20
38488;DHT22;57384;51.986;4.458;2023-06-14T02:22:10;20.40;47.40
38488;DHT22;57384;51.986;4.458;2023-06-14T02:24:40;20.30;47.30
38488;DHT22;57384;51.986;4.458;2023-06-14T02:27:07;20.30;47.30
38488;DHT22;57384;51.986;4.458;2023-06-14T02:29:36;20.30;47.30
38488;DHT22;57384;51.986;4.458;2023-06-14T02:32:06;20.30;47.60
38488;DHT22;57384;51.986;4.458;2023-06-14T02:34:39;20.30;47.40
38488;DHT22;57384;51.986;4.458;2023-06-14T02:37:08;20.20;47.40
38488;DHT22;57384;51.986;4.458;2023-06-14T02:39:36;20.20;47.40
38488;DHT22;57384;51.986;4.458;2023-06-14T02:42:03;20.10;47.10
38488;DHT22;57384;51.986;4.458;2023-06-14T02:44:32;20.10;47.20
38488;DHT22;57384;51.986;4.458;2023-06-14T02:46:59;20.00;47.20
38488;DHT22;57384;51.986;4.458;2023-06-14T02:49:25;20.10;47.10
38488;DHT22;57384;51.986;4.458;2023-06-14T02:51:52;20.00;47.00
38488;DHT22;57384;51.986;4.458;2023-06-14T02:54:19;19.90;47.10
38488;DHT22;57384;51.986;4.458;2023-06-14T02:56:49;19.90;47.30
38488;DHT22;57384;51.986;4.458;2023-06-14T02:59:16;19.90;47.60
38488;DHT22;57384;51.986;4.458;2023-06-14T03:01:42;19.90;47.40
38488;DHT22;57384;51.986;4.458;2023-06-14T03:04:09;19.80;47.30
38488;DHT22;57384;51.986;4.458;2023-06-14T03:06:36;19.80;47.50
38488;DHT22;57384;51.986;4.458;2023-06-14T03:09:03;19.70;47.30
38488;DHT22;57384;51.986;4.458;2023-06-14T03:11:31;19.80;47.30
38488;DHT22;57384;51.986;4.458;2023-06-14T03:13:58;19.70;47.00
38488;DHT22;57384;51.986;4.458;2023-06-14T03:16:24;19.60;47.20
38488;DHT22;57384;51.986;4.458;2023-06-14T03:18:52;19.60;47.40
38488;DHT22;57384;51.986;4.458;2023-06-14T03:21:19;19.50;47.50
38488;DHT22;57384;51.986;4.458;2023-06-14T03:23:46;19.50;48.10
38488;DHT22;57384;51.986;4.458;2023-06-14T03:26:16;19.50;47.20
38488;DHT22;57384;51.986;4.458;2023-06-14T03:28:42;19.40;47.40
38488;DHT22;57384;51.986;4.458;2023-06-14T03:31:09;19.40;47.60
38488;DHT22;57384;51.986;4.458;2023-06-14T03:33:36;19.40;47.60
38488;DHT22;57384;51.986;4.458;2023-06-14T03:36:03;19.40;47.80
38488;DHT22;57384;51.986;4.458;2023-06-14T03:38:29;19.40;47.70
38488;DHT22;57384;51.986;4.458;2023-06-14T03:40:56;19.30;47.90
38488;DHT22;57384;51.986;4.458;2023-06-14T03:43:23;19.30;48.00
38488;DHT22;57384;51.986;4.458;2023-06-14T03:45:49;19.30;48.10
38488;DHT22;57384;51.986;4.458;2023-06-14T03:48:17;19.20;48.00
38488;DHT22;57384;51.986;4.458;2023-06-14T03:50:46;19.30;48.10
38488;DHT22;57384;51.986;4.458;2023-06-14T03:53:13;19.20;48.10
38488;DHT22;57384;51.986;4.458;2023-06-14T03:55:40;19.20;48.00
38488;DHT22;57384;51.986;4.458;2023-06-14T03:58:07;19.20;48.10
38488;DHT22;57384;51.986;4.458;2023-06-14T04:00:33;19.20;48.30
38488;DHT22;57384;51.986;4.458;2023-06-14T04:03:00;19.10;48.40
38488;DHT22;57384;51.986;4.458;2023-06-14T04:05:29;19.10;48.50
38488;DHT22;57384;51.986;4.458;2023-06-14T04:07:55;19.10;48.80
38488;DHT22;57384;51.986;4.458;2023-06-14T04:10:22;19.10;48.70
38488;DHT22;57384;51.986;4.458;2023-06-14T04:12:59;19.10;48.80
38488;DHT22;57384;51.986;4.458;2023-06-14T04:15:29;19.00;48.70
38488;DHT22;57384;51.986;4.458;2023-06-14T04:17:55;19.00;48.90
38488;DHT22;57384;51.986;4.458;2023-06-14T04:20:22;19.00;49.10
38488;DHT22;57384;51.986;4.458;2023-06-14T04:22:56;19.00;49.20
38488;DHT22;57384;51.986;4.458;2023-06-14T04:25:23;19.00;49.10
38488;DHT22;57384;51.986;4.458;2023-06-14T04:27:50;19.00;49.20
38488;DHT22;57384;51.986;4.458;2023-06-14T04:30:18;19.00;49.10
38488;DHT22;57384;51.986;4.458;2023-06-14T04:32:45;19.00;49.40
38488;DHT22;57384;51.986;4.458;2023-06-14T04:35:17;18.90;49.20
38488;DHT22;57384;51.986;4.458;2023-06-14T04:37:44;18.90;49.20
38488;DHT22;57384;51.986;4.458;2023-06-14T04:40:13;19.00;49.30
38488;DHT22;57384;51.986;4.458;2023-06-14T04:42:40;18.90;49.60
38488;DHT22;57384;51.986;4.458;2023-06-14T04:45:10;18.90;49.70
38488;DHT22;57384;51.986;4.458;2023-06-14T04:47:36;18.90;49.70
38488;DHT22;57384;51.986;4.458;2023-06-14T04:50:06;18.90;49.80
38488;DHT22;57384;51.986;4.458;2023-06-14T04:52:32;18.90;50.00
38488;DHT22;57384;51.986;4.458;2023-06-14T04:55:01;18.90;49.90
38488;DHT22;57384;51.986;4.458;2023-06-14T04:57:31;18.90;49.80
38488;DHT22;57384;51.986;4.458;2023-06-14T05:00:00;18.90;49.90
38488;DHT22;57384;51.986;4.458;2023-06-14T05:02:27;19.00;49.90
38488;DHT22;57384;51.986;4.458;2023-06-14T05:04:53;19.00;50.00
38488;DHT22;57384;51.986;4.458;2023-06-14T05:07:26;19.00;50.00
38488;DHT22;57384;51.986;4.458;2023-06-14T05:10:00;19.00;50.20
38488;DHT22;57384;51.986;4.458;2023-06-14T05:12:27;19.00;50.20
38488;DHT22;57384;51.986;4.458;2023-06-14T05:14:57;19.00;50.10
38488;DHT22;57384;51.986;4.458;2023-06-14T05:17:27;19.10;50.10
38488;DHT22;57384;51.986;4.458;2023-06-14T05:19:54;19.10;50.20
38488;DHT22;57384;51.986;4.458;2023-06-14T05:22:21;19.20;50.20
38488;DHT22;57384;51.986;4.458;2023-06-14T05:24:48;19.20;50.20
38488;DHT22;57384;51.986;4.458;2023-06-14T05:27:18;19.20;50.10
38488;DHT22;57384;51.986;4.458;2023-06-14T05:29:45;19.30;50.10
38488;DHT22;57384;51.986;4.458;2023-06-14T05:32:14;19.30;50.00
38488;DHT22;57384;51.986;4.458;2023-06-14T05:34:43;19.40;50.10
38488;DHT22;57384;51.986;4.458;2023-06-14T05:37:09;19.40;50.10
38488;DHT22;57384;51.986;4.458;2023-06-14T05:39:36;19.50;50.00
38488;DHT22;57384;51.986;4.458;2023-06-14T05:42:03;19.60;50.10
38488;DHT22;57384;51.986;4.458;2023-06-14T05:44:32;19.60;49.90
38488;DHT22;57384;51.986;4.458;2023-06-14T05:47:05;19.70;49.70
38488;DHT22;57384;51.986;4.458;2023-06-14T05:49:32;19.80;49.50
38488;DHT22;57384;51.986;4.458;2023-06-14T05:52:16;19.80;49.40
38488;DHT22;57384;51.986;4.458;2023-06-14T05:54:57;20.00;49.40
38488;DHT22;57384;51.986;4.458;2023-06-14T05:57:30;20.10;49.10
38488;DHT22;57384;51.986;4.458;2023-06-14T05:59:59;20.20;48.80
38488;DHT22;57384;51.986;4.458;2023-06-14T06:02:33;20.30;48.60
38488;DHT22;57384;51.986;4.458;2023-06-14T06:05:03;20.40;48.50
38488;DHT22;57384;51.986;4.458;2023-06-14T06:07:40;20.50;48.20
38488;DHT22;57384;51.986;4.458;2023-06-14T06:10:08;20.70;47.90
38488;DHT22;57384;51.986;4.458;2023-06-14T06:12:41;20.80;47.70
38488;DHT22;57384;51.986;4.458;2023-06-14T06:15:27;20.90;47.50
38488;DHT22;57384;51.986;4.458;2023-06-14T06:17:57;21.00;47.30
38488;DHT22;57384;51.986;4.458;2023-06-14T06:20:24;21.10;47.10
38488;DHT22;57384;51.986;4.458;2023-06-14T06:23:00;21.20;46.90
38488;DHT22;57384;51.986;4.458;2023-06-14T06:25:29;21.40;46.80
38488;DHT22;57384;51.986;4.458;2023-06-14T06:27:59;21.50;46.70
38488;DHT22;57384;51.986;4.458;2023-06-14T06:30:25;21.60;46.70
38488;DHT22;57384;51.986;4.458;2023-06-14T06:32:52;21.60;46.40
38488;DHT22;57384;51.986;4.458;2023-06-14T06:35:24;21.70;46.20
38488;DHT22;57384;51.986;4.458;2023-06-14T06:37:51;21.80;46.00
38488;DHT22;57384;51.986;4.458;2023-06-14T06:40:18;21.90;45.90
38488;DHT22;57384;51.986;4.458;2023-06-14T06:42:44;22.10;45.70
38488;DHT22;57384;51.986;4.458;2023-06-14T06:45:11;22.20;45.50
38488;DHT22;57384;51.986;4.458;2023-06-14T06:47:38;22.20;45.20
38488;DHT22;57384;51.986;4.458;2023-06-14T06:50:05;22.30;45.10
38488;DHT22;57384;51.986;4.458;2023-06-14T06:52:34;22.40;44.90
38488;DHT22;57384;51.986;4.458;2023-06-14T06:55:01;22.50;44.80
38488;DHT22;57384;51.986;4.458;2023-06-14T06:57:27;22.60;44.80
38488;DHT22;57384;51.986;4.458;2023-06-14T06:59:54;22.70;44.70
38488;DHT22;57384;51.986;4.458;2023-06-14T07:02:26;22.80;44.50
38488;DHT22;57384;51.986;4.458;2023-06-14T07:04:53;22.80;44.20
38488;DHT22;57384;51.986;4.458;2023-06-14T07:07:19;23.00;44.20
38488;DHT22;57384;51.986;4.458;2023-06-14T07:09:46;23.00;44.10
38488;DHT22;57384;51.986;4.458;2023-06-14T07:12:13;23.10;43.90
38488;DHT22;57384;51.986;4.458;2023-06-14T07:14:39;23.20;43.90
38488;DHT22;57384;51.986;4.458;2023-06-14T07:17:06;23.40;44.10
38488;DHT22;57384;51.986;4.458;2023-06-14T07:19:33;23.50;43.30
38488;DHT22;57384;51.986;4.458;2023-06-14T07:22:00;23.60;43.10
38488;DHT22;57384;51.986;4.458;2023-06-14T07:24:29;23.70;43.00
38488;DHT22;57384;51.986;4.458;2023-06-14T07:26:58;23.80;42.90
38488;DHT22;57384;51.986;4.458;2023-06-14T07:29:33;23.90;42.60
38488;DHT22;57384;51.986;4.458;2023-06-14T07:32:00;24.00;42.50
38488;DHT22;57384;51.986;4.458;2023-06-14T07:34:27;24.10;42.50
38488;DHT22;57384;51.986;4.458;2023-06-14T07:37:02;24.20;42.30
38488;DHT22;57384;51.986;4.458;2023-06-14T07:39:28;24.30;42.10
38488;DHT22;57384;51.986;4.458;2023-06-14T07:41:57;24.50;41.90
38488;DHT22;57384;51.986;4.458;2023-06-14T07:44:29;24.60;41.60
38488;DHT22;57384;51.986;4.458;2023-06-14T07:46:58;24.80;41.60
38488;DHT22;57384;51.986;4.458;2023-06-14T07:49:26;24.90;41.40
38488;DHT22;57384;51.986;4.458;2023-06-14T07:58:52;25.40;41.10
38488;DHT22;57384;51.986;4.458;2023-06-14T08:01:22;25.60;40.50
38488;DHT22;57384;51.986;4.458;2023-06-14T08:03:50;25.80;40.50
38488;DHT22;57384;51.986;4.458;2023-06-14T08:06:19;26.00;40.30
38488;DHT22;57384;51.986;4.458;2023-06-14T08:08:46;26.10;40.00
38488;DHT22;57384;51.986;4.458;2023-06-14T08:11:13;26.30;39.80
38488;DHT22;57384;51.986;4.458;2023-06-14T08:13:48;26.50;39.50
38488;DHT22;57384;51.986;4.458;2023-06-14T08:16:15;26.70;39.80
38488;DHT22;57384;51.986;4.458;2023-06-14T08:18:42;26.80;39.50
38488;DHT22;57384;51.986;4.458;2023-06-14T08:21:08;27.00;39.20
38488;DHT22;57384;51.986;4.458;2023-06-14T08:23:35;27.20;39.40
38488;DHT22;57384;51.986;4.458;2023-06-14T08:26:02;27.40;39.10
38488;DHT22;57384;51.986;4.458;2023-06-14T08:28:29;27.60;38.80
38488;DHT22;57384;51.986;4.458;2023-06-14T08:30:55;27.70;38.40
38488;DHT22;57384;51.986;4.458;2023-06-14T08:33:22;27.90;38.30
38488;DHT22;57384;51.986;4.458;2023-06-14T08:35:48;28.00;37.80
38488;DHT22;57384;51.986;4.458;2023-06-14T08:38:15;28.20;37.20
38488;DHT22;57384;51.986;4.458;2023-06-14T08:40:42;28.30;37.30
38488;DHT22;57384;51.986;4.458;2023-06-14T08:43:09;28.40;37.10
38488;DHT22;57384;51.986;4.458;2023-06-14T08:45:35;28.60;36.70
38488;DHT22;57384;51.986;4.458;2023-06-14T08:48:02;28.70;37.20
38488;DHT22;57384;51.986;4.458;2023-06-14T08:50:30;28.80;36.90
38488;DHT22;57384;51.986;4.458;2023-06-14T08:53:01;29.00;36.40
38488;DHT22;57384;51.986;4.458;2023-06-14T08:55:34;29.10;36.10
38488;DHT22;57384;51.986;4.458;2023-06-14T08:58:03;29.30;35.90
38488;DHT22;57384;51.986;4.458;2023-06-14T09:00:30;29.40;36.40
38488;DHT22;57384;51.986;4.458;2023-06-14T09:02:57;29.50;35.60
38488;DHT22;57384;51.986;4.458;2023-06-14T09:05:28;29.60;36.00
38488;DHT22;57384;51.986;4.458;2023-06-14T09:07:58;29.70;35.90
38488;DHT22;57384;51.986;4.458;2023-06-14T09:10:25;29.90;36.00
38488;DHT22;57384;51.986;4.458;2023-06-14T09:13:02;30.10;36.10
38488;DHT22;57384;51.986;4.458;2023-06-14T09:15:30;30.20;35.00
38488;DHT22;57384;51.986;4.458;2023-06-14T09:18:13;30.30;34.80
38488;DHT22;57384;51.986;4.458;2023-06-14T09:20:43;30.40;35.00
38488;DHT22;57384;51.986;4.458;2023-06-14T09:23:12;30.60;34.70
38488;DHT22;57384;51.986;4.458;2023-06-14T09:25:46;30.70;34.30
38488;DHT22;57384;51.986;4.458;2023-06-14T09:28:13;30.80;34.20
38488;DHT22;57384;51.986;4.458;2023-06-14T09:30:42;30.90;34.10
38488;DHT22;57384;51.986;4.458;2023-06-14T09:33:09;31.00;33.70
38488;DHT22;57384;51.986;4.458;2023-06-14T09:35:37;31.10;33.20
38488;DHT22;57384;51.986;4.458;2023-06-14T09:38:03;31.10;33.20
38488;DHT22;57384;51.986;4.458;2023-06-14T09:40:34;31.20;32.90
38488;DHT22;57384;51.986;4.458;2023-06-14T09:43:06;31.40;32.60
38488;DHT22;57384;51.986;4.458;2023-06-14T09:45:33;31.40;32.70
38488;DHT22;57384;51.986;4.458;2023-06-14T09:48:03;31.50;32.40
38488;DHT22;57384;51.986;4.458;2023-06-14T09:50:30;31.60;32.30
38488;DHT22;57384;51.986;4.458;2023-06-14T09:53:05;31.60;32.40
38488;DHT22;57384;51.986;4.458;2023-06-14T09:55:35;31.80;31.80
38488;DHT22;57384;51.986;4.458;2023-06-14T09:58:06;31.80;31.90
38488;DHT22;57384;51.986;4.458;2023-06-14T10:00:33;31.90;31.50
38488;DHT22;57384;51.986;4.458;2023-06-14T10:03:28;32.00;31.30
38488;DHT22;57384;51.986;4.458;2023-06-14T10:05:55;32.00;31.60
38488;DHT22;57384;51.986;4.458;2023-06-14T10:08:27;32.10;31.30
38488;DHT22;57384;51.986;4.458;2023-06-14T10:10:58;32.20;31.10
38488;DHT22;57384;51.986;4.458;2023-06-14T10:13:26;32.20;30.70
38488;DHT22;57384;51.986;4.458;2023-06-14T10:18:44;32.40;30.20
38488;DHT22;57384;51.986;4.458;2023-06-14T10:21:23;32.40;29.80
38488;DHT22;57384;51.986;4.458;2023-06-14T10:23:51;32.50;29.60
38488;DHT22;57384;51.986;4.458;2023-06-14T10:26:25;32.50;29.80
38488;DHT22;57384;51.986;4.458;2023-06-14T10:29:08;32.60;29.30
38488;DHT22;57384;51.986;4.458;2023-06-14T10:31:42;32.70;29.40
38488;DHT22;57384;51.986;4.458;2023-06-14T10:34:09;32.70;29.20
38488;DHT22;57384;51.986;4.458;2023-06-14T10:36:35;32.80;29.10
38488;DHT22;57384;51.986;4.458;2023-06-14T10:39:07;32.80;29.00
38488;DHT22;57384;51.986;4.458;2023-06-14T10:41:38;32.80;28.40
38488;DHT22;57384;51.986;4.458;2023-06-14T10:46:48;32.90;28.40
38488;DHT22;57384;51.986;4.458;2023-06-14T10:49:19;33.00;28.10
38488;DHT22;57384;51.986;4.458;2023-06-14T10:51:50;33.00;28.00
38488;DHT22;57384;51.986;4.458;2023-06-14T10:54:17;33.00;28.60
38488;DHT22;57384;51.986;4.458;2023-06-14T10:56:51;33.00;28.00
38488;DHT22;57384;51.986;4.458;2023-06-14T10:59:19;33.10;28.00
38488;DHT22;57384;51.986;4.458;2023-06-14T11:01:58;33.10;28.10
38488;DHT22;57384;51.986;4.458;2023-06-14T11:04:57;33.30;28.30
38488;DHT22;57384;51.986;4.458;2023-06-14T11:07:39;33.40;28.40
38488;DHT22;57384;51.986;4.458;2023-06-14T11:10:42;33.50;28.10
38488;DHT22;57384;51.986;4.458;2023-06-14T11:13:09;33.60;28.40
38488;DHT22;57384;51.986;4.458;2023-06-14T11:15:37;33.70;28.10
38488;DHT22;57384;51.986;4.458;2023-06-14T11:18:07;33.80;28.10
38488;DHT22;57384;51.986;4.458;2023-06-14T11:20:35;33.90;28.10
38488;DHT22;57384;51.986;4.458;2023-06-14T11:23:03;33.90;27.90
38488;DHT22;57384;51.986;4.458;2023-06-14T11:25:30;34.00;28.30
38488;DHT22;57384;51.986;4.458;2023-06-14T11:27:57;34.10;28.40
38488;DHT22;57384;51.986;4.458;2023-06-14T11:30:25;34.20;28.20
38488;DHT22;57384;51.986;4.458;2023-06-14T11:32:52;34.30;28.10
38488;DHT22;57384;51.986;4.458;2023-06-14T11:35:21;34.50;27.90
38488;DHT22;57384;51.986;4.458;2023-06-14T11:37:52;34.50;28.40
38488;DHT22;57384;51.986;4.458;2023-06-14T11:40:18;34.60;27.60
38488;DHT22;57384;51.986;4.458;2023-06-14T11:42:45;34.80;27.60
38488;DHT22;57384;51.986;4.458;2023-06-14T11:45:12;34.90;27.40
38488;DHT22;57384;51.986;4.458;2023-06-14T11:47:40;34.90;27.40
38488;DHT22;57384;51.986;4.458;2023-06-14T11:50:08;35.10;27.50
38488;DHT22;57384;51.986;4.458;2023-06-14T11:52:36;35.20;27.50
38488;DHT22;57384;51.986;4.458;2023-06-14T11:55:09;35.40;27.30
38488;DHT22;57384;51.986;4.458;2023-06-14T11:57:36;35.50;27.10
38488;DHT22;57384;51.986;4.458;2023-06-14T12:00:04;35.60;26.90
38488;DHT22;57384;51.986;4.458;2023-06-14T12:02:31;35.70;26.90
38488;DHT22;57384;51.986;4.458;2023-06-14T12:05:04;35.80;27.20
38488;DHT22;57384;51.986;4.458;2023-06-14T12:07:38;35.90;26.90
38488;DHT22;57384;51.986;4.458;2023-06-14T12:10:06;36.00;27.10
38488;DHT22;57384;51.986;4.458;2023-06-14T12:12:36;36.10;26.90
38488;DHT22;57384;51.986;4.458;2023-06-14T12:15:07;36.30;26.70
38488;DHT22;57384;51.986;4.458;2023-06-14T12:17:35;36.40;27.10
38488;DHT22;57384;51.986;4.458;2023-06-14T12:20:06;36.40;26.70
38488;DHT22;57384;51.986;4.458;2023-06-14T12:22:38;36.60;26.50
38488;DHT22;57384;51.986;4.458;2023-06-14T12:25:08;36.80;26.50
38488;DHT22;57384;51.986;4.458;2023-06-14T12:27:34;36.90;26.40
38488;DHT22;57384;51.986;4.458;2023-06-14T12:30:11;37.00;26.20
38488;DHT22;57384;51.986;4.458;2023-06-14T12:32:38;37.10;26.40
38488;DHT22;57384;51.986;4.458;2023-06-14T12:35:05;37.30;26.70
38488;DHT22;57384;51.986;4.458;2023-06-14T12:37:37;37.40;26.40
38488;DHT22;57384;51.986;4.458;2023-06-14T12:40:07;37.60;26.20
38488;DHT22;57384;51.986;4.458;2023-06-14T12:42:34;37.80;26.20
38488;DHT22;57384;51.986;4.458;2023-06-14T12:45:00;37.90;26.70
38488;DHT22;57384;51.986;4.458;2023-06-14T12:47:27;38.10;26.40
38488;DHT22;57384;51.986;4.458;2023-06-14T12:49:54;38.30;26.30
38488;DHT22;57384;51.986;4.458;2023-06-14T12:52:22;38.40;26.10
38488;DHT22;57384;51.986;4.458;2023-06-14T12:54:52;38.60;26.30
38488;DHT22;57384;51.986;4.458;2023-06-14T12:57:18;38.80;26.20
38488;DHT22;57384;51.986;4.458;2023-06-14T12:59:46;38.80;25.80
38488;DHT22;57384;51.986;4.458;2023-06-14T13:02:17;39.00;25.80
38488;DHT22;57384;51.986;4.458;2023-06-14T13:04:44;39.10;26.10
38488;DHT22;57384;51.986;4.458;2023-06-14T13:07:11;39.20;26.20
38488;DHT22;57384;51.986;4.458;2023-06-14T13:09:37;39.30;26.20
38488;DHT22;57384;51.986;4.458;2023-06-14T13:12:04;39.40;26.10
38488;DHT22;57384;51.986;4.458;2023-06-14T13:14:31;39.50;26.30
38488;DHT22;57384;51.986;4.458;2023-06-14T13:16:57;39.60;25.50
38488;DHT22;57384;51.986;4.458;2023-06-14T13:19:24;39.60;25.30
38488;DHT22;57384;51.986;4.458;2023-06-14T13:21:51;39.60;25.10
38488;DHT22;57384;51.986;4.458;2023-06-14T13:24:17;39.70;25.30
38488;DHT22;57384;51.986;4.458;2023-06-14T13:26:47;39.80;25.30
38488;DHT22;57384;51.986;4.458;2023-06-14T13:29:14;39.90;25.10
38488;DHT22;57384;51.986;4.458;2023-06-14T13:31:41;40.00;25.40
38488;DHT22;57384;51.986;4.458;2023-06-14T13:34:07;40.10;25.50
38488;DHT22;57384;51.986;4.458;2023-06-14T13:36:34;40.10;25.60
38488;DHT22;57384;51.986;4.458;2023-06-14T13:39:00;40.20;25.30
38488;DHT22;57384;51.986;4.458;2023-06-14T13:41:28;40.30;25.20
38488;DHT22;57384;51.986;4.458;2023-06-14T13:43:56;40.30;25.00
38488;DHT22;57384;51.986;4.458;2023-06-14T13:46:23;40.40;25.20
38488;DHT22;57384;51.986;4.458;2023-06-14T13:48:49;40.40;25.30
38488;DHT22;57384;51.986;4.458;2023-06-14T13:51:18;40.50;24.90
38488;DHT22;57384;51.986;4.458;2023-06-14T13:53:51;40.60;24.80
38488;DHT22;57384;51.986;4.458;2023-06-14T13:56:19;40.70;24.60
38488;DHT22;57384;51.986;4.458;2023-06-14T13:58:45;40.80;24.90
38488;DHT22;57384;51.986;4.458;2023-06-14T14:01:12;40.80;24.60
38488;DHT22;57384;51.986;4.458;2023-06-14T14:03:39;40.80;24.70
38488;DHT22;57384;51.986;4.458;2023-06-14T14:06:05;41.00;25.10
38488;DHT22;57384;51.986;4.458;2023-06-14T14:08:32;41.00;24.90
38488;DHT22;57384;51.986;4.458;2023-06-14T14:10:59;41.10;24.70
38488;DHT22;57384;51.986;4.458;2023-06-14T14:13:25;41.20;24.80
38488;DHT22;57384;51.986;4.458;2023-06-14T14:15:52;41.20;24.50
38488;DHT22;57384;51.986;4.458;2023-06-14T14:18:18;41.20;24.30
38488;DHT22;57384;51.986;4.458;2023-06-14T14:20:45;41.10;24.40
38488;DHT22;57384;51.986;4.458;2023-06-14T14:23:11;41.20;24.60
38488;DHT22;57384;51.986;4.458;2023-06-14T14:25:38;41.20;24.40
38488;DHT22;57384;51.986;4.458;2023-06-14T14:28:05;41.20;24.40
38488;DHT22;57384;51.986;4.458;2023-06-14T14:30:31;41.20;24.60
38488;DHT22;57384;51.986;4.458;2023-06-14T14:32:58;41.20;24.50
38488;DHT22;57384;51.986;4.458;2023-06-14T14:35:25;41.20;24.50
38488;DHT22;57384;51.986;4.458;2023-06-14T14:37:51;41.20;24.50
38488;DHT22;57384;51.986;4.458;2023-06-14T14:40:18;41.20;24.60
38488;DHT22;57384;51.986;4.458;2023-06-14T14:42:45;41.20;24.40
38488;DHT22;57384;51.986;4.458;2023-06-14T14:45:11;41.20;24.40
38488;DHT22;57384;51.986;4.458;2023-06-14T14:47:38;41.20;24.10
38488;DHT22;57384;51.986;4.458;2023-06-14T14:50:05;41.20;24.20
38488;DHT22;57384;51.986;4.458;2023-06-14T14:52:31;41.10;24.10
38488;DHT22;57384;51.986;4.458;2023-06-14T14:54:58;41.00;24.10
38488;DHT22;57384;51.986;4.458;2023-06-14T14:57:24;41.00;24.40
38488;DHT22;57384;51.986;4.458;2023-06-14T14:59:56;41.00;24.40
38488;DHT22;57384;51.986;4.458;2023-06-14T15:02:23;40.90;24.40
38488;DHT22;57384;51.986;4.458;2023-06-14T15:04:49;40.90;24.40
38488;DHT22;57384;51.986;4.458;2023-06-14T15:07:16;40.90;24.40
38488;DHT22;57384;51.986;4.458;2023-06-14T15:09:42;40.90;24.50
38488;DHT22;57384;51.986;4.458;2023-06-14T15:12:10;40.90;24.30
38488;DHT22;57384;51.986;4.458;2023-06-14T15:14:36;40.80;24.20
38488;DHT22;57384;51.986;4.458;2023-06-14T15:17:05;40.80;24.20
38488;DHT22;57384;51.986;4.458;2023-06-14T15:19:32;40.70;24.20
38488;DHT22;57384;51.986;4.458;2023-06-14T15:21:59;40.60;24.20
38488;DHT22;57384;51.986;4.458;2023-06-14T15:24:25;40.40;24.30
38488;DHT22;57384;51.986;4.458;2023-06-14T15:26:52;40.30;24.20
38488;DHT22;57384;51.986;4.458;2023-06-14T15:29:18;40.10;24.30
38488;DHT22;57384;51.986;4.458;2023-06-14T15:31:45;39.80;24.40
38488;DHT22;57384;51.986;4.458;2023-06-14T15:34:11;39.70;24.50
38488;DHT22;57384;51.986;4.458;2023-06-14T15:36:38;39.50;24.50
38488;DHT22;57384;51.986;4.458;2023-06-14T15:39:04;39.40;24.40
38488;DHT22;57384;51.986;4.458;2023-06-14T15:41:31;39.30;24.40
38488;DHT22;57384;51.986;4.458;2023-06-14T15:43:57;39.30;24.40
38488;DHT22;57384;51.986;4.458;2023-06-14T15:46:24;39.20;24.30
38488;DHT22;57384;51.986;4.458;2023-06-14T15:48:50;39.10;24.40
38488;DHT22;57384;51.986;4.458;2023-06-14T15:51:17;39.10;24.50
38488;DHT22;57384;51.986;4.458;2023-06-14T15:53:43;39.10;24.30
38488;DHT22;57384;51.986;4.458;2023-06-14T15:56:10;39.10;24.20